927  
NZUS99 KBOU 180048  
SYNBOU  
 
HOT-AIR BALLOON FORECAST FOR COLORADO  
NATIONAL WEATHER SERVICE DENVER/BOULDER, COLORADO  
1845 MDT WEDNESDAY, AUGUST 17, 2022  
 
* * * * * NORTHEAST COLORADO * * * * *  
 
METAR KFNL 172356Z 18006KT 7SM CLR 29/07 A3021 RMK AO2 SLP166 T02940067  
10300 20256 56012  
METAR KFNL 172256Z 13008KT 10SM CLR 30/08 A3022 RMK AO2 SLP170  
T03000078  
METAR KFNL 172156Z VRB06KT 10SM CLR 30/08 A3023 RMK AO2 SLP172  
T03000083  
 
METAR KGXY 172356Z 16006KT 10SM CLR 30/06 A3019 RMK AO2 SLP179 T03000056  
10306 20228 56014 $  
METAR KGXY 172256Z 19005KT 10SM CLR 30/06 A3020 RMK AO2 SLP185 T03000061  
$  
METAR KGXY 172156Z VRB05KT 10SM CLR 29/06 A3022 RMK AO2 SLP193 T02890061  
$  
 
METAR KLMO 180035Z AUTO 00000KT 10SM CLR 29/03 A3022 RMK AO2  
T02910034  
METAR KLMO 180015Z AUTO 09003KT 10SM CLR 30/03 A3022 RMK AO2  
T02950026  
METAR KLMO 172355Z AUTO 00000KT 10SM CLR 30/02 A3022 RMK AO2 T02950017  
10304 20262  
 
METAR KBDU 180035Z AUTO 00000KT 10SM CLR 27/03 A3022 RMK AO2  
METAR KBDU 180015Z AUTO 00000KT 10SM CLR 28/03 A3022 RMK AO2  
METAR KBDU 172355Z AUTO 00000KT 10SM CLR 28/03 A3022 RMK AO2  
 
METAR KEIK 180035Z AUTO 00000KT 10SM CLR 28/04 A3021 RMK AO2 T02790036  
PWINO  
METAR KEIK 180015Z AUTO 08004KT 10SM CLR 28/05 A3021 RMK AO2 T02830052  
PWINO  
METAR KEIK 172355Z AUTO 09005KT 10SM CLR 29/06 A3021 RMK AO2 T02850057  
10289 20247 PWINO  
 
KBJC 172330Z 1800/1824 07007KT P6SM SCT100  
FM180200 VRB05KT P6SM FEW090  
FM180400 29005KT P6SM SKC  
FM181600 03007KT P6SM FEW080  
FM182100 04009KT P6SM SCT080  
METAR KBJC 172348Z VRB06KT 10SM SCT100 28/05 A3026  
METAR KBJC 172250Z 08006KT 10SM SCT100 28/05 A3027  
METAR KBJC 172159Z 12008KT 10SM SCT100 28/03 A3027  
 
KDEN 172330Z 1800/1906 08005KT P6SM FEW080  
FM180300 15007KT P6SM FEW090  
FM180600 20010KT P6SM SKC  
FM181400 24007KT P6SM SKC  
FM181700 01010KT P6SM SCT080  
FM182200 04012KT P6SM SCT080  
FM190300 09007KT P6SM FEW080 SCT200  
METAR KDEN 172353Z 08010KT 10SM FEW080 FEW220 28/03 A3022 RMK AO2 SLP158  
T02780028 10289 20239 56009  
SPECI KDEN 172255Z 08003KT 10SM FEW080 FEW220 28/06 A3023 RMK AO2  
T02830056  
METAR KDEN 172253Z 10SM FEW080 FEW220 28/06 A3023 RMK AO2 SLP161  
T02780061  
 
METAR KBKF 172358Z 11005KT 10SM FEW070 FEW200 27/10 A3025 RMK AO2A  
SLP174 T02660099 10281 20235 57009  
METAR KBKF 172258Z 02007KT 10SM FEW070 FEW200 28/10 A3026 RMK AO2A  
SLP175 T02790101  
METAR KBKF 172158Z VRB03KT 10SM FEW070 FEW180 27/09 A3027 RMK AO2A  
SLP179 T02730091  
 
KAPA 172330Z 1800/1824 VRB05KT P6SM FEW080 SCT200  
FM180200 16007KT P6SM FEW090  
FM180500 20010KT P6SM SKC  
FM181500 32005KT P6SM FEW080  
FM181800 03010KT P6SM SCT080  
METAR KAPA 172353Z 10005KT 10SM FEW070 FEW130 FEW220 26/07 A3026 RMK AO2  
SLP184 T02560072 10267 20228 56009  
METAR KAPA 172253Z VRB04KT 10SM FEW070 FEW130 FEW220 27/07 A3027 RMK AO2  
SLP187 T02670067  
METAR KAPA 172153Z VRB04KT 10SM FEW070 FEW130 FEW220 26/08 A3028 RMK AO2  
SLP187 T02610083  
 
METAR KMNH 180035Z AUTO 06005KT 10SM CLR 21/08 A3037 RMK AO2  
METAR KMNH 180015Z AUTO 36003KT 10SM CLR 21/08 A3037 RMK AO2  
METAR KMNH 172355Z AUTO 06004KT 10SM CLR 21/08 A3037 RMK AO2  
 
METAR KFMM 180035Z AUTO 10SM CLR 28/07 A3017 RMK AO2  
METAR KFMM 180015Z AUTO 10SM CLR 28/07 A3018 RMK AO2  
METAR KFMM 172355Z AUTO 10SM CLR 28/09 A3018 RMK AO2  
 
METAR KSTK 180035Z AUTO 11004KT 10SM CLR 29/08 A3013 RMK AO2  
METAR KSTK 180015Z AUTO 13003KT 10SM CLR 29/07 A3013 RMK AO2  
METAR KSTK 172355Z AUTO 14003KT 10SM CLR 30/07 A3014 RMK AO2  
 
METAR KAKO 172353Z AUTO 00000KT 10SM CLR 26/10 A3020 RMK AO2 SLP171  
T02610100 10272 20217 56013  
METAR KAKO 172253Z AUTO 21006KT 10SM CLR 26/12 A3021 RMK AO2 SLP175  
T02610117  
METAR KAKO 172153Z AUTO VRB04KT 10SM CLR 26/11 A3022 RMK AO2 SLP180  
T02610106  
 
METAR KLIC 172355Z AUTO 02004KT 10SM CLR 27/06 A3024 RMK AO2 SLP168  
T02720061 10278 20239 56007  
METAR KLIC 172255Z AUTO 05005KT 10SM CLR 27/08 A3025 RMK AO2 SLP170  
T02670078  
METAR KLIC 172155Z AUTO 36009KT 10SM FEW065 27/10 A3025 RMK AO2 LTG DSNT  
S SLP166 T02720100  
 
METAR KHEQ 180030Z AUTO 14011KT 10SM CLR 26/13 A3016 RMK AO2  
METAR KHEQ 180015Z AUTO 15011G15KT 10SM CLR 26/12 A3016 RMK AO2  
METAR KHEQ 172350Z AUTO 15012KT 10SM CLR 27/13 A3017 RMK AO2  
 
METAR K2V6 180034Z AUTO 12008KT 10SM CLR 24/M04 A3017 RMK AO2  
METAR K2V6 180014Z AUTO 12008KT 10SM CLR 25/M05 A3017 RMK AO2  
METAR K2V6 172354Z AUTO 11009KT 10SM CLR 25/M06 A3017 RMK AO2  
 
METAR KITR 172353Z AUTO 10SM CLR 27/11 A3019 RMK AO2 SLP172 T02720106  
10278 20228 56009 $  
METAR KITR 172253Z AUTO 11006KT 10SM FEW060 27/11 A3020 RMK AO2 SLP175  
T02720111 $  
METAR KITR 172153Z AUTO 10SM SCT060 27/12 A3020 RMK AO2 SLP177 T02720117  
$  
 
SUNRISE/SUNSET FOR 08/17/2022  
FORT COLLINS - 06:13:12 MDT / 19:55:25 MDT  
DENVER - 06:14:12 MDT / 19:53:34 MDT  
STERLING - 06:05:37 MDT / 19:48:10 MDT  
 
DENVER/BOULDER (KFTG) 08/18/22 00:39 UTC  
RADAR VAD WINDS HEIGHT DIR/SPD(KT)  
13000 FT MSL...348/016  
12600 FT MSL...350/019  
12000 FT MSL...355/015  
11200 FT MSL...355/014  
11000 FT MSL...353/013  
10000 FT MSL...003/011  
10000 FT MSL...002/012  
9000 FT MSL...013/009  
8900 FT MSL...009/010  
8100 FT MSL...019/008  
8000 FT MSL...022/008  
7300 FT MSL...029/009  
7000 FT MSL...039/009  
6600 FT MSL...029/009  
6200 FT MSL...057/010  
6000 FT MSL...094/009  
5900 FT MSL...076/009  
 
DENVER/BOULDER AVIATION DISCUSSION  
ISSUED AT 2330 UTC WEDNESDAY, AUGUST 17, 2022  
   
AVIATION
 
(FOR THE 00Z TAFS THROUGH 00Z THURSDAY EVENING)  
ISSUED AT 528 PM MDT WED AUG 17 2022  
VFR THROUGH THE TAF PERIOD. WINDS ARE LIGHT THIS AFTERNOON AND  
WILL REMAIN LIGHT OVERNIGHT, SHIFTING TOWARDS DRAINAGE WINDS AFTER  
SUNSET. THERE SHOULD BE A BETTER PUSH OF STRONGER N-NE WINDS  
TOMORROW, THOUGH SPEEDS SHOULD REMAIN LESS THAN 12KT. NO CEILING  
OR VISIBILITY IMPACTS ARE ANTICIPATED THROUGH THURSDAY EVENING.  
 
* * * * * SOUTHEAST COLORADO * * * * *  
 
METAR K4BM 180035Z AUTO 02006KT 10SM CLR 10/02 A3067 RMK AO2 LTG DSNT  
S  
METAR K4BM 180016Z AUTO 03004KT 10SM CLR 11/03 A3067 RMK AO2  
METAR K4BM 172355Z AUTO 02007KT 10SM SCT030 11/04 A3067 RMK AO2  
 
METAR KAFF 172358Z 13007KT 10SM BKN065 BKN200 23/10 A3030 RMK AO2A  
SLP187 T02290096 10248 20224 57005  
METAR KAFF 172258Z 14004KT 10SM FEW070 SCT210 24/09 A3030 RMK AO2A  
SLP187 T02380090  
METAR KAFF 172158Z 09007KT 10SM FEW075 BKN100 25/09 A3031 RMK AO2A  
SLP185 T02450088  
 
KCOS 172331Z 1800/1824 20007KT P6SM FEW060 BKN250  
FM180200 12006KT P6SM SCT250  
FM180500 36006KT P6SM SKC  
FM181700 12007KT P6SM SKC  
FM182000 04012KT P6SM SCT080  
SPECI KCOS 180031Z 12010KT 10SM FEW070 SCT110 BKN220 22/14 A3030 RMK AO2  
WSHFT 0014 T02220139 $  
METAR KCOS 172354Z 15006KT 10SM FEW060 FEW100 BKN240 24/10 A3030 RMK  
AO2 SLP184 T02390100 10256 20228 58005  
METAR KCOS 172254Z 19006KT 10SM FEW060 BKN240 25/11 A3031 RMK AO2 SLP184  
T02500111  
 
METAR KABH 172358Z AUTO 16009KT 10SM OVC230 20/15 A3031 RMK AO2 RAE43  
SLP200 P0012 60031 T01990145 10250 20176 55004  
SPECI KABH 172343Z AUTO 17010KT 10SM FEW033 BKN230 20/16 A3031 RMK AO2  
RAE43 SLP200  
SPECI KABH 172307Z AUTO 18010KT 8SM -RA FEW003 SCT038 BKN055 OVC070  
18/15 A3032 RMK AO2 LTG DSNT SE SLP215  
 
METAR KFLY 180035Z AUTO 14013KT 10SM SCT050 SCT060 BKN080 20/13 A3036  
RMK AO2 T01970130  
METAR KFLY 180015Z AUTO 17014KT 10SM SCT055 SCT070 SCT080 20/13 A3036  
RMK AO2 T02030128  
METAR KFLY 172355Z AUTO 14009KT 10SM SCT055 22/11 A3036 RMK AO2  
T02220114 10250 20212  
 
KFCS 172100Z 1721/1903 19010KT 9999 VCSH FEW060 SCT200  
QNH3026INS  
TEMPO 1721/1723 14012G18KT 9000 -SHRA FEW060 BKN120  
BECMG 1801/1802 18010KT 9999 NSW FEW120 QNH3028INS  
BECMG 1804/1805 30005KT 6000 BR BKN030 QNH3032INS  
BECMG 1812/1813 34010KT 9999 NSW SKC QNH3023INS TX26/1722Z  
TN13/1813Z  
METAR KFCS 172358Z AUTO 14003KT 10SM CLR 25/09 A3024 RMK AO2 SLP192  
T02490092 10260 20231 57007 $  
METAR KFCS 172258Z AUTO 15006KT 10SM FEW230 26/10 A3025 RMK AO2 SLP190  
T02550097 $  
METAR KFCS 172158Z AUTO 24005KT 10SM FEW230 25/10 A3026 RMK AO2 SLP194  
T02480103 $  
 
KPUB 172331Z 1800/1824 18008KT P6SM SCT110 BKN250  
FM180200 14007KT P6SM SCT250  
FM180600 VRB04KT P6SM SKC  
FM181900 09012KT P6SM SKC  
METAR KPUB 172353Z 21005KT 10SM BKN070 28/11 A3019 RMK AO2 LTG DSNT E  
SLP163 T02780106 10294 20244 56010  
METAR KPUB 172253Z 18008KT 10SM FEW070 28/11 A3020 RMK AO2 SLP165  
T02830111  
METAR KPUB 172153Z AUTO VRB05KT 10SM BKN110 28/12 A3021 RMK AO2 SLP167  
T02830117  
 
METAR KVTP 180035Z AUTO 00000KT 3SM RA SCT030 BKN039 OVC050 09/09 A3057  
RMK AO2 P0005  
METAR KVTP 180015Z AUTO 00000KT 10SM -RA SCT009 BKN037 OVC043 10/09  
A3057 RMK AO2  
METAR KVTP 172355Z AUTO 09003KT 10SM RA SCT009 BKN031 OVC038 10/08 A3058  
RMK AO2  
 
METAR KTAD 172354Z AUTO 06003KT 10SM CLR 23/13 A3028 RMK AO2 SLP183  
T02280128 10244 20211 56005  
METAR KTAD 172254Z AUTO 07004KT 10SM FEW065 BKN100 23/14 A3029 RMK  
AO2 LTG DSNT SE SLP184 T02280139  
METAR KTAD 172154Z AUTO VRB06KT 10SM FEW038 OVC085 23/14 A3029 RMK  
AO2 SLP185 T02330139  
 
METAR KLHX 172353Z AUTO 09007KT 10SM CLR 25/16 A3019 RMK AO2 LTG DSNT NW  
SLP170 T02500161 10256 20217 56011  
METAR KLHX 172253Z AUTO 13005KT 10SM CLR 25/16 A3021 RMK AO2 SLP178  
T02500161  
METAR KLHX 172153Z AUTO 10005KT 10SM FEW035 24/17 A3021 RMK AO2 SLP177  
T02440167  
 
METAR KLAA 172353Z AUTO 00000KT 10SM CLR 26/14 A3016 RMK AO2 SLP168  
T02560144 10261 20200 56013  
METAR KLAA 172253Z AUTO 14004KT 10SM SCT041 26/16 A3018 RMK AO2 SLP173  
T02560161  
METAR KLAA 172153Z AUTO 00000KT 10SM SCT032 24/17 A3018 RMK AO2 SLP177  
T02440167  
 
METAR KSPD 172356Z AUTO 12005KT 23/16 A3021 RMK AO1 SLP172 T02280156  
10233 20183 56013  
METAR KSPD 172256Z AUTO 09007KT 23/17 A3022 RMK AO1 SLP178 T02330167  
METAR KSPD 172156Z AUTO 09006KT 23/16 A3023 RMK AO1 SLP181 T02330161  
 
SUNRISE/SUNSET FOR 08/17/2022  
BURLINGTON - 06:04:09 MDT / 19:42:06 MDT  
PUEBLO - 06:15:16 MDT / 19:49:46 MDT  
LAMAR - 06:07:32 MDT / 19:41:28 MDT  
 
PUEBLO (KPUX) 08/18/22 00:38 UTC  
RADAR VAD WINDS HEIGHT DIR/SPD(KT)  
30000 FT MSL...193/011  
20000 FT MSL...286/013  
19200 FT MSL...344/013  
19000 FT MSL...347/014  
18000 FT MSL...018/014  
17000 FT MSL...012/012  
16500 FT MSL...015/018  
16000 FT MSL...018/016  
15000 FT MSL...001/020  
14300 FT MSL...014/020  
14000 FT MSL...353/016  
13000 FT MSL...349/019  
12400 FT MSL...353/016  
12000 FT MSL...345/018  
11000 FT MSL...012/024  
10900 FT MSL...315/017  
10000 FT MSL...004/018  
9700 FT MSL...293/013  
9000 FT MSL...270/012  
8600 FT MSL...260/010  
8000 FT MSL...170/007  
7700 FT MSL...165/008  
7000 FT MSL...142/012  
7000 FT MSL...150/011  
6400 FT MSL...141/014  
6000 FT MSL...141/012  
5900 FT MSL...124/012  
5700 FT MSL...126/013  
 
PUEBLO AVIATION DISCUSSION  
ISSUED AT 2051 UTC WEDNESDAY, AUGUST 17, 2022  
   
AVIATION
 
(FOR THE 18Z TAFS THROUGH 18Z THURSDAY AFTERNOON)  
ISSUED AT 250 PM MDT WED AUG 17 2022  
AT KCOS AND KPUB.. VFR CONDITIONS ARE EXPECTED FOR THE NEXT 24 HOURS  
AT BOTH STATIONS. SHOWERS AND THUNDERSTORMS ARE EXPECTED TO STAY IN  
THE MOUNTAINS THIS AFTERNOON, WITH ONLY MID AND HIGH LEVEL CLOUD  
COVER MAKING ITS WAY OVER THE TERMINALS. WINDS WILL FOLLOW MAINLY  
DIURNAL TRENDS, WITH SOUTHEASTERLIES THIS AFTERNOON SWITCHING TO  
MAINLY NORTHERLIES FOR THE OVERNIGHT HOURS.  
AT KALS.. SHOWERS AND WEAK THUNDERSTORMS ARE EXPECTED ON AND NEAR  
STATION THIS AFTERNOON FROM 22Z TO 03Z. BRIEF PERIODS OF MVFR  
CEILINGS AND VISIBILITIES WILL BE POSSIBLE DURING SHOWERS AND  
THUNDERSTORMS, ALONG WITH GUSTY AND VARIABLE WINDS. CONFIDENCE IS  
MEDIUM TO HIGH THAT FOG WILL DEVELOP IN THE SAN LUIS VALLEY  
OVERNIGHT AND INTO THE EARLY MORNING HOURS OF TOMORROW, WITH LARGE  
SCALE SUBSIDENCE MOVING INTO THE REGION, CALM WINDS AT THE SURFACE,  
AND HIGH RELATIVE HUMIDITIES FOLLOWING PERIODS OF POSSIBLY HEAVY  
RAINFALL THIS AFTERNOON. AREAS OF FOG SHOULD CLEAR OUT QUICKLY AFTER  
SUNRISE TOMORROW MORNING.  
 
* * * * * NORTHWEST COLORADO * * * * *  
 
METAR KCAG 172353Z AUTO VRB04KT 10SM CLR 31/M02 A3021 RMK AO2 SLP149  
T03111017 10322 20272 56014  
METAR KCAG 172253Z AUTO 13007KT 10SM CLR 31/02 A3022 RMK AO2 SLP155  
T03060017  
METAR KCAG 172153Z AUTO 17004KT 10SM CLR 31/M01 A3024 RMK AO2 SLP159  
T03061006  
 
METAR KHDN 172356Z VRB03KT 10SM CLR 29/M02 A3026 RMK AO2 SLP164  
T02891017 10294 20250 56012  
METAR KHDN 172256Z 10007KT 10SM CLR 29/M01 A3027 RMK AO2 SLP166  
T02891006  
METAR KHDN 172156Z 00000KT 10SM CLR 28/M02 A3028 RMK AO2 SLP171  
T02831017  
 
METAR KSBS 180035Z AUTO 07014G17KT 10SM CLR 27/00 A3025 RMK AO1  
T02660003  
METAR KSBS 180015Z AUTO 05010G14KT 10SM CLR 27/00 A3026 RMK AO1  
T02700003  
METAR KSBS 172355Z AUTO 05011G16KT 10SM CLR 28/00 A3026 RMK AO1 T02760000  
10285 20237  
 
METAR KC07 180035Z AUTO 03003KT 10SM CLR 17/M01 A3061 RMK AO2  
METAR KC07 180015Z AUTO 06005KT 10SM CLR 17/M02 A3061 RMK AO2  
METAR KC07 172355Z AUTO 06006KT 10SM CLR 17/M02 A3061 RMK AO2 LTG DSNT  
SW  
 
METAR K33V 180035Z AUTO 05014G17KT 10SM CLR 22/00 A3042 RMK AO1  
METAR K33V 180015Z AUTO 04015G19KT 10SM CLR 22/00 A3042 RMK AO1  
METAR K33V 172355Z AUTO 06011G14KT 10SM CLR 23/00 A3042 RMK AO1  
 
METAR KEEO 172353Z AUTO 06012KT 10SM CLR 29/M01 A3023 RMK AO2 SLP151  
T02941006 10306 20239 56010  
METAR KEEO 172253Z AUTO 04009G23KT 10SM CLR 29/M02 A3024 RMK AO2 SLP158  
T02941017  
METAR KEEO 172153Z AUTO 03009G20KT 350V060 10SM CLR 30/M02 A3025 RMK AO2  
SLP157 T03001017  
 
METAR K20V 180035Z AUTO 00000KT 10SM SCT095 25/03 A3032 RMK AO2 LTG DSNT  
S  
METAR K20V 180015Z AUTO 23004KT 10SM SCT095 25/03 A3032 RMK AO2  
METAR K20V 172355Z AUTO 00000KT 10SM CLR 26/04 A3033 RMK AO2  
 
METAR KGNB 180035Z AUTO 11006KT 10SM SCT075 BKN100 21/M08 A3040 RMK AO2  
LTG DSNT S T02121082  
METAR KGNB 180015Z AUTO 16006G15KT 10SM SCT100 23/M09 A3039 RMK AO2  
T02301095  
METAR KGNB 172355Z AUTO 36003KT 10SM CLR 23/M11 A3040 RMK AO2 T02301115  
10240 20187  
 
METAR K0CO 180035Z AUTO 10SM CLR 07/M01 A3074 RMK AO2  
METAR K0CO 180015Z AUTO 10SM CLR 07/00 A3074 RMK AO2  
METAR K0CO 172355Z AUTO 10SM CLR 07/00 A3074 RMK AO2  
 
METAR KC99 180033Z AUTO 06003KT 10SM VCTS CLR 12/00 A3064 RMK AO2 LTG  
DSNT SW  
METAR KC99 180013Z AUTO 06003KT 10SM CLR 12/00 A3064 RMK AO2  
METAR KC99 172353Z AUTO 00000KT 10SM CLR 13/01 A3064 RMK AO2  
 
KGJT 172337Z 1800/1824 15010KT P6SM FEW100 SCT200  
FM180200 12010KT P6SM FEW150 FEW250  
FM181500 15010KT P6SM SKC  
METAR KGJT 172353Z 18006KT 10SM CLR 32/09 A3009 RMK AO2 SLP110 T03220094  
10328 20267 56018  
METAR KGJT 172253Z 16008KT 10SM CLR 32/09 A3010 RMK AO2 SLP118  
T03220094  
METAR KGJT 172153Z 10SM CLR 32/09 A3011 RMK AO2 SLP123 T03170089  
 
KRIL 172337Z 1800/1824 13008KT P6SM SCT100 SCT200  
FM180600 10005KT P6SM FEW200  
METAR KRIL 172353Z AUTO VRB03KT 10SM FEW110 31/07 A3013 RMK AO2 SLP133  
T03060072 10322 20261 56017  
METAR KRIL 172253Z AUTO 00000KT 10SM CLR 31/08 A3014 RMK AO2 SLP136  
T03110078  
METAR KRIL 172153Z AUTO 00000KT 10SM CLR 31/08 A3017 RMK AO2 SLP142  
T03110078  
 
METAR K5SM 180035Z AUTO 00000KT 10SM CLR 15/00 A3062 RMK AO2  
METAR K5SM 180015Z AUTO 00000KT 10SM CLR 15/00 A3062 RMK AO2  
METAR K5SM 172355Z AUTO 00000KT 10SM CLR 15/M01 A3062 RMK AO2  
 
KEGE 172337Z 1800/1824 31010KT P6SM SCT100 SCT200  
FM180400 10004KT P6SM FEW200  
METAR KEGE 172356Z 07005KT 10SM CLR 28/M01 A3026 RMK AO2 SLP143  
T02831011 10289 20206 56014  
METAR KEGE 172256Z 15004KT 10SM CLR 28/03 A3026 RMK AO2 SLP144  
T02780028  
METAR KEGE 172156Z 20007KT 10SM CLR 27/03 A3028 RMK AO2 LTG DSNT SE  
SLP149 T02720028  
 
KASE 172337Z 1800/1824 35008KT P6SM VCSH FEW060 SCT090  
FM180100 16010G20KT P6SM FEW070 SCT100  
FM180600 19005KT P6SM FEW100  
FM181800 35010KT P6SM FEW200  
METAR KASE 172353Z COR 15003 10SM CLR 24/04 A3033 RMK AO2 SLP146  
T02390039 10250 20178 56010  
METAR KASE 172353Z 10SM CLR 24/04 A3033 RMK AO2 SLP146 T02390039 10250  
20178 56010  
METAR KASE 172253Z VRB04KT 10SM CLR 24/06 A3033 RMK AO2 LTG DSNT NE AND  
E SLP147 T02440061  
 
METAR KCCU 180035Z AUTO 08005KT 10SM BKN037 BKN055 BKN070 15/06 A3070  
RMK AO2  
METAR KCCU 180015Z AUTO 06004KT 10SM BKN035 BKN045 OVC050 17/06 A3070  
RMK AO2  
METAR KCCU 172355Z AUTO 25003KT 10SM BKN043 BKN048 OVC070 16/04 A3070  
RMK AO2  
 
SPECI KLXV 180033Z AUTO 00000KT 10SM TS FEW100 SCT120 15/08 A3053 RMK  
AO2 LTG DSNT W TSB27 T01500078  
METAR KLXV 172353Z AUTO 20006KT 10SM FEW050 SCT090 SCT110 15/08 A3053  
RMK AO2 SLP179 60000 T01500078 10172 20128 50005  
METAR KLXV 172253Z AUTO 21007KT 10SM BKN075 14/06 A3053 RMK AO2 LTG DSNT  
N AND E RAB30E45 SLP185 P0000 T01440061  
 
SUNRISE/SUNSET FOR 08/17/2022  
RANGELY - 06:28:51 MDT / 20:09:27 MDT  
GRAND JUNCTION - 06:29:38 MDT / 20:06:51 MDT  
STEAMBOAT SPRINGS - 06:20:20 MDT / 20:02:17 MDT  
 
GRAND JUNCTION (KGJX) 08/18/22 00:39 UTC  
RADAR VAD WINDS HEIGHT DIR/SPD(KT)  
21200 FT MSL...304/022  
19000 FT MSL...031/007  
19000 FT MSL...023/006  
18000 FT MSL...015/008  
17100 FT MSL...053/010  
17000 FT MSL...045/009  
15600 FT MSL...045/009  
15000 FT MSL...029/010  
14400 FT MSL...029/010  
14000 FT MSL...035/014  
13400 FT MSL...034/010  
13000 FT MSL...036/013  
12600 FT MSL...024/010  
12000 FT MSL...015/011  
11800 FT MSL...026/010  
11000 FT MSL...029/010  
11000 FT MSL...012/010  
10400 FT MSL...011/006  
10200 FT MSL...035/007  
10100 FT MSL...023/005  
 
GRAND JUNCTION AVIATION DISCUSSION  
ISSUED AT 0000 UTC THURSDAY, AUGUST 18, 2022  
   
AVIATION
 
(FOR THE 00Z TAFS THROUGH 00Z THURSDAY EVENING)  
ISSUED AT 553 PM MDT WED AUG 17 2022  
SCATTERED SHOWERS AND STORMS WILL DIMINISH BY SUNSET AT MOUNTAIN  
TERMINALS. ALONG I-70 AND NORTHWARD, VFR CONDITIONS WILL PREVAIL  
THIS EVENING AND OVERNIGHT. SCATTERED AFTERNOON SHOWERS AND  
THUNDERSTORMS WILL DEVELOP AGAIN THURSDAY AFTERNOON IN THE  
MOUNTAINS WITH POTENTIAL FOR PERIODS OF HEAVY RAIN, GUSTY OUTFLOW  
WINDS, AND SMALL HAIL.  
 
* * * * * SOUTHWEST COLORADO * * * * *  
 
METAR KAJZ 180035Z AUTO 20006KT 10SM SCT120 31/10 A3015 RMK AO2  
T03110102  
METAR KAJZ 180015Z AUTO 19009KT 10SM CLR 31/11 A3015 RMK AO2  
T03080105  
METAR KAJZ 172355Z AUTO 19006KT 10SM CLR 31/10 A3015 RMK AO2 T03090101  
10322 20275  
 
KMTJ 172337Z 1800/1824 16010KT P6SM SCT070 SCT200  
FM180300 13008KT P6SM FEW080 SCT200  
FM181800 30010KT P6SM FEW080 FEW200  
METAR KMTJ 172353Z AUTO 21005KT 10SM CLR 27/13 A3020 RMK AO2 LTG DSNT SW  
SLP147 T02720128 10278 20211 56013  
METAR KMTJ 172253Z AUTO 04004KT 10SM CLR 27/13 A3021 RMK AO2 LTG DSNT S  
AND SW SLP153 T02720128  
METAR KMTJ 172153Z AUTO 25005KT 10SM CLR 26/14 A3023 RMK AO2 SLP159  
T02560139  
 
METAR KGUC 172356Z AUTO 23004KT 10SM OVC100 20/12 A3037 RMK AO2 SLP204  
60001 T02000122 10206 20139 56013  
METAR KGUC 172256Z AUTO VRB03KT 10SM BKN100 19/13 A3039 RMK AO2 RAE15  
SLP210 P0000 T01940128  
METAR KGUC 172156Z AUTO 33005KT 10SM -RA SCT027 BKN036 OVC046 18/14  
A3039 RMK AO2 TSB04E19RAB44 SLP218 P0000 T01780139  
 
METAR K7BM 180035Z AUTO 00000KT 10SM VCTS BKN070 17/09 A3054 RMK AO2 LTG  
DSNT N  
METAR K7BM 180015Z AUTO 00000KT 10SM SCT055 BKN070 17/08 A3054 RMK AO2  
LTG DSNT NE  
METAR K7BM 172355Z AUTO 00000KT 10SM SCT070 BKN120 17/08 A3054 RMK AO2  
LTG DSNT NE AND S  
 
METAR KAEJ 180035Z AUTO 14006KT 10SM 20/08 A3040 RMK AO2 T02000082  
METAR KAEJ 180015Z AUTO 00000KT 10SM 20/08 A3040 RMK AO2 T02000078  
METAR KAEJ 172355Z AUTO 11004KT 10SM 20/08 A3040 RMK AO2 T02020084  
10217 20170  
 
METAR KANK 180035Z AUTO 12005KT 10SM CLR 22/10 A3044 RMK AO1  
T02150095  
METAR KANK 180015Z AUTO 00000KT 10SM CLR 21/09 A3044 RMK AO1  
T02120094  
METAR KANK 172355Z AUTO 00000KT 10SM CLR 21/10 A3045 RMK AO1 T02100095  
10220 20173  
 
METAR KMYP 180035Z AUTO 07009KT 10SM BKN090 09/06 A3078 RMK AO2  
METAR KMYP 180015Z AUTO 06009KT 10SM BKN090 09/06 A3079 RMK AO2  
METAR KMYP 172355Z AUTO 06011KT 10SM SCT065 OVC090 09/07 A3079 RMK  
AO2  
 
KTEX 172337Z 1800/1824 VRB04KT P6SM VCTS SCT060CB BKN070  
TEMPO 1800/1803 VRB15G25KT 6SM -TSRA BKN060CB OVC070CB  
FM180300 12004KT P6SM FEW050 SCT100  
FM181600 24008KT P6SM VCSH FEW045 SCT250  
FM181800 22010KT P6SM SCT070 BKN250  
METAR KTEX 180035Z AUTO 00000KT 10SM SCT120 13/12 A3050 RMK AO2  
METAR KTEX 180015Z AUTO 00000KT 10SM BKN120 13/11 A3050 RMK AO2  
METAR KTEX 172355Z AUTO 17003KT 10SM -RA SCT030 SCT044 BKN090 13/12  
A3051 RMK AO2 LTG DSNT NW P0002  
 
METAR K04V 180035Z AUTO 11006KT 10SM 18/11 A3040 RMK AO2 PWINO  
METAR K04V 180015Z AUTO 15006KT 10SM 19/10 A3040 RMK AO2 PWINO  
METAR K04V 172355Z AUTO 14009KT 10SM 20/10 A3040 RMK AO2 LTG DSNT S AND  
SW PWINO  
 
METAR KCEZ 172353Z AUTO 04010G18KT 10SM BKN075 24/13 A3021 RMK AO2 LTG  
DSNT SW SLP157 60000 T02390133 10294 20200 58004  
METAR KCEZ 172253Z AUTO 07017G23KT 10SM CLR 23/14 A3023 RMK AO2 TSE06  
SLP162 T02280139  
SPECI KCEZ 172229Z AUTO 08012G20KT 10SM SCT085 22/14 A3023 RMK AO2 LTG  
DSNT E TSE06 T02170144  
 
KDRO 172337Z 1800/1824 04010KT P6SM VCTS BKN090CB BKN110  
TEMPO 1800/1804 VRB15G25KT 6SM -TSRA BKN060CB OVC090  
FM180600 07006KT P6SM SCT070 BKN120  
FM181600 VRB04KT P6SM VCSH FEW060 SCT250  
FM181800 16006KT P6SM FEW060 SCT250  
METAR KDRO 172353Z AUTO 33014G19KT 10SM BKN070 22/13 A3029 RMK AO2 LTG  
DSNT SE SLP176 60000 T02170128 10261 20200 55000  
METAR KDRO 172253Z AUTO 02010KT 10SM BKN090 OVC110 21/14 A3029 RMK AO2  
LTG DSNT E RAB00E51 TSE05B08E23 SLP177 P0000 T02110144  
SPECI KDRO 172229Z AUTO 04008KT 10SM -RA SCT060 OVC110 22/14 A3029 RMK  
AO2 LTG DSNT E AND W RAB00 TSE05B08E23 P0000 T02170139  
 
METAR KPSO 180035Z AUTO 02003KT 10SM SCT085 BKN120 17/15 A3039 RMK AO2  
T01740146  
METAR KPSO 180015Z AUTO 05005KT 10SM SCT085 BKN120 17/17 A3040 RMK AO2  
T01720165  
METAR KPSO 172355Z AUTO 06004KT 10SM OVC095 18/16 A3040 RMK AO2 LTG DSNT  
SE AND S T01750161 10232 20169  
 
METAR KCPW 180035Z AUTO 21006KT 10SM BKN003 OVC044 08/08 A3072 RMK AO2  
LTG DSNT SE AND SW  
METAR KCPW 180015Z AUTO 27006KT 10SM SCT003 BKN041 OVC047 08/08 A3073  
RMK AO2  
METAR KCPW 172355Z AUTO 29006KT 10SM SCT004 BKN044 OVC060 08/08 A3074  
RMK AO2 LTG DSNT SE  
 
KALS 172331Z 1800/1824 10010KT 4SM -RA SCT050 OVC090  
FM180200 VRB05KT P6SM SCT050 BKN090  
FM180900 VRB04KT 2SM BR SCT010  
FM181600 VRB04KT P6SM SCT030  
FM181800 10009KT P6SM SKC  
METAR KALS 172352Z AUTO 11008KT 10SM -RA FEW070 OVC090 14/12 A3039 RMK  
AO2 LTG DSNT NE SLP220 P0004 60079 T01390122 10250 20133  
50008  
SPECI KALS 172311Z AUTO 11009KT 8SM -RA FEW065 OVC085 13/12 A3040 RMK  
AO2 LTG DSNT NE AND SE P0003 T01330122  
METAR KALS 172252Z AUTO 10010KT 4SM VCTS RA BR FEW055 BKN070 OVC090  
13/12 A3040 RMK AO2 LTG DSNT NE-SE SLP226 P0044 T01330122  
 
SUNRISE/SUNSET FOR 08/17/2022  
VAIL - 06:19:56 MDT / 19:59:00 MDT  
DURANGO - 06:29:49 MDT / 20:01:12 MDT  
ALAMOSA - 06:21:32 MDT / 19:53:31 MDT  
 
GRAND JUNCTION (KGJX) 08/18/22 00:39 UTC  
RADAR VAD WINDS HEIGHT DIR/SPD(KT)  
21200 FT MSL...304/022  
19000 FT MSL...031/007  
19000 FT MSL...023/006  
18000 FT MSL...015/008  
17100 FT MSL...053/010  
17000 FT MSL...045/009  
15600 FT MSL...045/009  
15000 FT MSL...029/010  
14400 FT MSL...029/010  
14000 FT MSL...035/014  
13400 FT MSL...034/010  
13000 FT MSL...036/013  
12600 FT MSL...024/010  
12000 FT MSL...015/011  
11800 FT MSL...026/010  
11000 FT MSL...029/010  
11000 FT MSL...012/010  
10400 FT MSL...011/006  
10200 FT MSL...035/007  
10100 FT MSL...023/005  
 
GRAND JUNCTION AVIATION DISCUSSION  
ISSUED AT 0000 UTC THURSDAY, AUGUST 18, 2022  
   
AVIATION
 
(FOR THE 00Z TAFS THROUGH 00Z THURSDAY EVENING)  
ISSUED AT 553 PM MDT WED AUG 17 2022  
SCATTERED SHOWERS AND STORMS WILL DIMINISH BY SUNSET AT MOUNTAIN  
TERMINALS. ALONG I-70 AND NORTHWARD, VFR CONDITIONS WILL PREVAIL  
THIS EVENING AND OVERNIGHT. SCATTERED AFTERNOON SHOWERS AND  
THUNDERSTORMS WILL DEVELOP AGAIN THURSDAY AFTERNOON IN THE  
MOUNTAINS WITH POTENTIAL FOR PERIODS OF HEAVY RAIN, GUSTY OUTFLOW  
WINDS, AND SMALL HAIL.  
 
* * * * * ARIZONA * * * * *  
 
KPGA 172320Z 1800/1824 35006KT P6SM SCT120  
TEMPO 1800/1802 VRB15G25KT -TSRA SCT090CB BKN110  
FM180300 VRB05KT P6SM BKN110  
METAR KPGA 172353Z AUTO 05008KT 10SM CLR 33/12 A3007 RMK AO2 LTG DSNT E  
AND SW AND W SLP110 T03330117 10339 20283 56012  
METAR KPGA 172253Z AUTO 10SM CLR 34/11 A3007 RMK AO2 LTG DSNT SE SLP110  
T03390106  
METAR KPGA 172153Z AUTO 34006KT 10SM CLR 33/12 A3008 RMK AO2 LTG DSNT  
NE-SE SLP115 T03280117  
 
SPECI KRQE 180007Z AUTO 36009KT 10SM FEW075 SCT090 23/13 A3026 RMK AO2  
LTG DSNT E AND SW AND W TSE02 T02280128  
METAR KRQE 172353Z AUTO 36012G18KT 10SM TS FEW075 24/12 A3026 RMK AO2  
LTG DSNT SW-N TSB47 SLP134 T02390122 10283 20217 55006  
SPECI KRQE 172343Z AUTO 01009G15KT 10SM VCTS SCT080 24/13 A3025 RMK AO2  
LTG DSNT ALQDS T02440128  
 
FLAGSTAFF (KFSX) 08/18/22 00:36 UTC  
RADAR VAD WINDS HEIGHT DIR/SPD(KT)  
10000 FT MSL...016/014  
9900 FT MSL...031/011  
9200 FT MSL...050/008  
9000 FT MSL...351/011  
8500 FT MSL...009/008  
8100 FT MSL...324/010  
8000 FT MSL...320/009  
7800 FT MSL...315/008  
 
FLAGSTAFF AVIATION DISCUSSION  
ISSUED AT 2136 UTC WEDNESDAY, AUGUST 17, 2022  
   
AVIATION...FOR THE 00Z TAF PACKAGE
 
PRIMARILY VFR CONDITIONS  
ARE EXPECTED OUTSIDE OF THUNDERSTORMS OVER THE NEXT 24 HOURS.  
SCATTERED SHOWERS AND THUNDERSTORMS NEAR KGCN-KFLG-KSEZ-KPRC  
WILL DIMINISH LATER THIS EVENING, THEN RE-DEVELOP IN THE SAME  
AREAS THURSDAY AFTERNOON. SURFACE WINDS WILL GENERALLY BE LIGHT  
AWAY FROM STORMS. AVIATION DISCUSSION NOT UPDATED FOR TAF  
AMENDMENTS.  
 
* * * * * UTAH * * * * *  
 
KSLC 172320Z 1800/1906 34009KT P6SM FEW120  
FM180600 15005KT P6SM FEW120  
FM181800 34008KT P6SM FEW120  
FM190500 15005KT P6SM SCT120  
METAR KSLC 172354Z 27012KT 10SM SCT110TCU SCT150 37/07 A3003 RMK AO2  
SLP102 TCU E T03670067 10378 20333 56014  
METAR KSLC 172254Z 26015G19KT 8SM SCT110 BKN150 37/08 A3004 RMK AO2  
SLP102 TCU DSNT NE AND E T03720078  
METAR KSLC 172154Z COR 28011G20KT 10SM SCT110 SCT150 8 A3006 RMK AO2  
SLP107 TCU DSNT NW T03780078  
 
KVEL 172337Z 1800/1824 05007KT P6SM FEW150 FEW250  
FM180600 VRB04KT P6SM FEW120 FEW250  
METAR KVEL 172353Z AUTO 09003KT 10SM CLR 33/M01 A3014 RMK AO2 SLP132  
T03331011 10344 20278 56017  
METAR KVEL 172253Z AUTO 06007KT 10SM CLR 34/00 A3015 RMK AO2 SLP136  
T03440000  
METAR KVEL 172153Z AUTO 14004KT 10SM CLR 34/02 A3017 RMK AO2 SLP142  
T03390017  
 
METAR KPUC 172353Z AUTO 09009G18KT 10SM CLR 32/M04 A3018 RMK AO2 SLP122  
T03171044 10333 20306 58013  
METAR KPUC 172253Z AUTO 03007G23KT 10SM CLR 33/M05 A3020 RMK AO2 SLP125  
T03281050  
METAR KPUC 172153Z AUTO 05015G26KT 10SM CLR 33/M06 A3022 RMK AO2 PK WND  
03026/2150 SLP130 T03281061  
 
KCNY 172337Z 1800/1824 11008G15KT P6SM FEW120 FEW250  
FM180300 12005KT P6SM FEW100 FEW250  
METAR KCNY 172353Z AUTO 07011KT 10SM CLR 33/07 A3005 RMK AO2 SLP109  
T03330072 10333 20278 56018  
 
SALT LAKE CITY (KMTX) 08/18/22 00:38 UTC  
RADAR VAD WINDS HEIGHT DIR/SPD(KT)  
14000 FT MSL...275/020  
12200 FT MSL...053/008  
12000 FT MSL...067/009  
11000 FT MSL...069/008  
11000 FT MSL...061/008  
10000 FT MSL...062/007  
10000 FT MSL...045/008  
9100 FT MSL...059/006  
9000 FT MSL...049/006  
8300 FT MSL...045/005  
8000 FT MSL...018/007  
7700 FT MSL...358/005  
6900 FT MSL...352/010  
6900 FT MSL...321/006  
6600 FT MSL...350/010  
 
SALT LAKE CITY AVIATION DISCUSSION  
ISSUED AT 2142 UTC WEDNESDAY, AUGUST 17, 2022  
   
AVIATION...KSLC
 
VFR CONDITIONS ARE EXPECTED AT THE KSLC  
TERMINAL FOR THE ENTIRE PERIOD. HIGH PRESSURE CENTERED OVER THE  
AREA WILL KEEP PRECIPITATION CHANCES VERY LOW (~5%) AND RESULT IN  
ONLY A FEW HIGH CLOUDS. THIS WILL ALSO KEEP LIGHT AND DIURNAL  
WINDS ACROSS THE AREA.   
REST OF UTAH AND SOUTHWEST WYOMING
 
MAINLY VFR CONDITIONS ACROSS  
ALL OF UTAH ASIDE FROM SOUTHWESTERN UTAH THAT COULD SEE BRIEF  
MVFR/IFR CONDITIONS FROM MONSOONAL CONVECTION. HIGH PRESSURE  
CENTERED OVER NORTHERN UTAH WILL RESULT IN DRY CONDITIONS WITH A FEW  
HIGH CLOUDS OVER THE NORTHEASTERN HALF OF UTAH, WHEREAS MONSOONAL  
THUNDERSTORMS WILL ENCOMPASS THE SOUTHWESTERN HALF OF THE STATE  
DURING THE AFTERNOON HOURS FOR THE REMAINDER OF TODAY AND TOMORROW.  
WINDS WILL BE LIGHT AND DIURNAL.  
 
* * * * * WYOMING * * * * *  
 
KEVW 172320Z 1800/1824 07008KT P6SM FEW200  
FM180400 15006KT P6SM SKC  
FM181500 08007KT P6SM FEW130=  
METAR KEVW 172353Z AUTO 07010G15KT 10SM FEW100 28/02 A3032 RMK AO2  
SLP160 T02830017 10294 20256 56011  
METAR KEVW 172253Z AUTO 08005KT 10SM CLR 28/01 A3033 RMK AO2 SLP166  
T02830006  
METAR KEVW 172153Z AUTO 10SM CLR 29/02 A3034 RMK AO2 SLP166  
T02940017  
 
KRKS 172321Z 1800/1824 07011KT P6SM SCT110  
FM180600 VRB05KT P6SM SKC  
FM181500 08011KT P6SM SKC  
FM182100 05006KT P6SM FEW120  
METAR KRKS 172354Z AUTO 05009KT 10SM CLR 28/02 A3029 RMK AO2 SLP171  
T02830022 10311 20250 56009  
METAR KRKS 172254Z AUTO 07009G16KT 10SM FEW120 29/03 A3030 RMK AO2 PK  
WND 03029/2207 SLP167 T02940028  
METAR KRKS 172154Z AUTO 03016G24KT 10SM BKN110 28/04 A3032 RMK AO2 PK  
WND 01029/2140 SLP173 T02830039  
 
KRWL 172325Z 1800/1824 04012G22KT P6SM VCTS FEW100CB  
FM180200 07012KT P6SM FEW150  
FM180400 14012KT P6SM FEW200  
FM180600 VRB06KT P6SM SKC  
METAR KRWL 172353Z AUTO 06011G17KT 10SM FEW110 29/01 A3030 RMK AO2  
SLP164 T02940011 10300 20244 56010  
METAR KRWL 172253Z AUTO 10010KT 10SM CLR 29/01 A3031 RMK AO2 SLP167  
T02890006  
METAR KRWL 172153Z AUTO 06008G20KT 10SM CLR 29/00 A3032 RMK AO2 SLP170  
T02940000  
 
KLAR 172325Z 1800/1824 06010G18KT P6SM SKC  
FM180200 13007KT P6SM SKC  
FM180500 16006KT P6SM SKC  
FM181500 02008KT P6SM SKC  
FM181900 01012G20KT P6SM FEW200  
METAR KLAR 172353Z AUTO 08008G16KT 10SM CLR 25/01 A3034 RMK AO2 SLP171  
T02500006 10261 20222 56006  
METAR KLAR 172253Z AUTO 04012G17KT 10SM CLR 26/M01 A3035 RMK AO2 SLP171  
T02611011  
METAR KLAR 172153Z AUTO 02006G15KT 10SM CLR 26/M01 A3036 RMK AO2 SLP173  
T02561011  
 
KCYS 172325Z 1800/1824 04010G17KT P6SM SKC  
FM180200 14010KT P6SM SKC  
FM180300 17008KT P6SM SKC  
FM180600 24008KT P6SM SKC  
FM181700 36015G25KT P6SM SKC  
METAR KCYS 172353Z 10008KT 10SM BKN100 28/04 A3026 RMK AO2 SLP162  
T02780044 10300 20256 56008  
METAR KCYS 172253Z VRB05G16KT 10SM CLR 28/00 A3026 RMK AO2 SLP163  
T02830000  
METAR KCYS 172153Z VRB04KT 10SM FEW100 29/02 A3027 RMK AO2 SLP163  
T02890017  
 
RIVERTON (KRIW) 08/18/22 00:39 UTC  
RADAR VAD WINDS HEIGHT DIR/SPD(KT)  
11000 FT MSL...024/013  
10000 FT MSL...020/013  
10000 FT MSL...025/013  
9000 FT MSL...025/013  
8900 FT MSL...027/013  
8000 FT MSL...027/012  
8000 FT MSL...026/013  
7300 FT MSL...027/014  
7000 FT MSL...029/013  
6700 FT MSL...025/013  
6200 FT MSL...043/009  
6000 FT MSL...037/010  
5900 FT MSL...049/009  
 
CHEYENNE (KCYS) 08/18/22 00:41 UTC  
RADAR VAD WINDS HEIGHT DIR/SPD(KT)  
15100 FT MSL...004/019  
15000 FT MSL...006/018  
14000 FT MSL...008/017  
13200 FT MSL...007/014  
13000 FT MSL...004/014  
12000 FT MSL...358/011  
11700 FT MSL...007/010  
11000 FT MSL...009/009  
10500 FT MSL...354/012  
10000 FT MSL...006/008  
9500 FT MSL...360/010  
9000 FT MSL...018/008  
8700 FT MSL...005/007  
8000 FT MSL...047/006  
7900 FT MSL...060/004  
7200 FT MSL...086/005  
 
RIVERTON AVIATION DISCUSSION  
ISSUED AT 2326 UTC WEDNESDAY, AUGUST 17, 2022  
   
AVIATION
 
FOR THE 00Z TAFS THROUGH 00Z FRIDAY  
ISSUED AT 526 PM MDT WED AUG 17 2022  
VFR PREVAILS AT ALL TERMINALS THROUGH THE TAF PERIOD. ISOLATED  
SHOWERS AND THUNDERSTORMS ARE ON THE WANE LATE THIS AFTERNOON, AND  
CONVECTION WILL BE A NON-FACTOR AFTER 02Z/THURSDAY. OTHERWISE,  
AFTER OUTFLOW WIND FADES AT THE CENTRAL TERMINALS, LIGHT WINDS  
WILL PREVAIL AT ALL TERMINALS THROUGH THE PERIOD WITH MOSTLY CLEAR  
SKIES.  
PLEASE SEE THE AVIATION WEATHER CENTER AND/OR CWSU ZDV AND ZLC FOR  
THE LATEST INFORMATION ON ICING AND TURBULENCE FORECASTS.  
 
CHEYENNE AVIATION DISCUSSION  
ISSUED AT 2330 UTC WEDNESDAY, AUGUST 17, 2022  
   
AVIATION
 
(FOR THE 00Z TAFS THROUGH 00Z THURSDAY EVENING)  
ISSUED AT 526 PM MDT WED AUG 17 2022  
VFR ANTICIPATED FOR ALL TERMINALS THROUGH THE FORECAST PERIOD.  
THERE IS A LOW CHANCE OF MVFR BETWEEN 01-02Z THIS EVENING FOR KCDR  
AS VCTS TRANSITIONS TO -TSRA FOR A SHORT PERIOD OF TIME, WITH  
GUSTS UP TO APPROXIMATELY 25 KNOTS BEFORE THE THUNDERSHOWERS MOVE  
OUT OF THE AREA. KRWL WILL ALSO SEE VCTS THIS EVENING BRIEFLY, BUT  
VIS REDUCTIONS ARE NOT LIKELY. VRB WINDS ARE ANTICIPATED FOR THE  
NE PANHANDLE TERMINALS AFTER 6Z TONIGHT, BUT NOT EXPECTING MIFG AT  
THIS TIME OF INSPECTION. SEE TAF TIMELINES FOR FURTHER  
INFORMATION.  
 
* * * * * NEBRASKA * * * * *  
 
METAR KIBM 180035Z AUTO 00000KT 10SM CLR 28/06 A3019 RMK AO2  
T02750060  
METAR KIBM 180015Z AUTO 13004KT 10SM CLR 28/06 A3019 RMK AO2  
T02780058  
METAR KIBM 172355Z AUTO 09004KT 10SM CLR 28/05 A3019 RMK AO2 T02800052  
10285 20235  
 
KSNY 172325Z 1800/1824 12010KT P6SM SKC  
FM180300 15012KT P6SM SKC  
FM180600 18011KT P6SM FEW200  
FM180900 22008KT P6SM SKC  
FM181200 25007KT P6SM FEW200  
METAR KSNY 172353Z AUTO 06008KT 10SM CLR 30/07 A3014 RMK AO2 SLP155  
T03000067 10306 20233 56014  
METAR KSNY 172253Z AUTO VRB04KT 10SM CLR 30/06 A3015 RMK AO2 SLP158  
T03000061  
METAR KSNY 172153Z AUTO 00000KT 10SM CLR 29/07 A3017 RMK AO2 SLP165  
T02940072  
 
METAR KOGA 180035Z AUTO 15008KT 10SM CLR 26/15 A3015 RMK AO2  
T02590151  
METAR KOGA 180015Z AUTO 15010KT 10SM CLR 26/15 A3015 RMK AO2  
T02620152  
METAR KOGA 172355Z AUTO 13011G15KT 10SM CLR 27/15 A3015 RMK AO2  
T02660149 10283 20238  
 
METAR KIML 172353Z AUTO 15008KT 10SM CLR 25/16 A3016 RMK AO2 SLP187  
T02500156 10261 20217 56014  
METAR KIML 172253Z AUTO 11009KT 10SM SCT040 26/16 A3017 RMK AO2 SLP191  
T02610161  
METAR KIML 172153Z AUTO 11010KT 10SM SCT039 25/16 A3019 RMK AO2 SLP196  
T02500161  
 
KMCK 172320Z 1800/1824 13007KT P6SM SKC  
FM180600 VRB05KT P6SM SKC  
TEMPO 1808/1812 6SM BR SCT005  
FM181700 17008KT P6SM SKC  
METAR KMCK 172353Z AUTO 14008KT 10SM CLR 26/12 A3014 RMK AO2 SLP186  
T02610122 10267 20211 56020  
METAR KMCK 172253Z AUTO VRB05KT 10SM FEW046 26/14 A3016 RMK AO2 SLP193  
T02560144  
METAR KMCK 172153Z AUTO 13007KT 100V170 10SM CLR 25/16 A3017 RMK AO2  
SLP200 T02500156  
 
NORTH PLATTE (KLNX) 08/18/22 00:44 UTC  
RADAR VAD WINDS HEIGHT DIR/SPD(KT)  
14000 FT MSL...332/022  
13000 FT MSL...352/018  
12000 FT MSL...353/016  
12000 FT MSL...354/016  
11000 FT MSL...347/016  
10100 FT MSL...342/014  
10000 FT MSL...343/014  
8000 FT MSL...326/016  
4100 FT MSL...206/013  
4000 FT MSL...207/014  
3600 FT MSL...205/015  
3400 FT MSL...200/016  
 
NORTH PLATTE AVIATION DISCUSSION  
ISSUED AT 0011 UTC THURSDAY, AUGUST 18, 2022  
   
AVIATION
 
(FOR THE 00Z TAFS THROUGH 00Z THURSDAY EVENING)  
ISSUED AT 710 PM CDT WED AUG 17 2022  
QUIET AVIATION CONDITIONS ARE EXPECTED THROUGH THURSDAY AFTERNOON.  
VFR CEILINGS WILL PREVAIL WITH MOSTLY LIGHT WINDS UNDER 10 KNOTS.  
SOME STRONGER WINDS WITH GUSTS UP TO 25 KNOTS MAY DEVELOP BY LATE  
AFTERNOON ACROSS KVTN AS THE NEXT FRONTAL SYSTEM MOVES ACROSS THE  
REGION. TIMING IS STILL A LITTLE UNCERTAIN ON WHEN THE STRONGEST  
WINDS, BUT CURRENT GUIDANCE SUGGESTS STRONGER WINDS BY 21Z.  
 
* * * * * KANSAS * * * * *  
 
KGLD 172320Z 1800/1824 13006KT P6SM BKN060  
FM180600 VRB05KT P6SM SCT005 SCT060  
TEMPO 1810/1814 5SM BR BKN005  
FM181400 23008KT P6SM SKC  
FM182000 34010KT P6SM SKC  
METAR KGLD 172353Z AUTO 10010KT 10SM SCT055 25/14 A3017 RMK AO2 SLP180  
T02500139 10278 20211 56010  
METAR KGLD 172253Z AUTO 14006KT 10SM FEW050 27/13 A3018 RMK AO2 SLP183  
T02670128  
METAR KGLD 172153Z AUTO 08005KT 10SM FEW048 BKN060 26/12 A3019 RMK AO2  
SLP184 T02560122  
 
KGCK 172320Z 1800/1824 09007KT P6SM BKN100  
FM180300 VRB05KT P6SM SCT100 SCT200  
FM181500 21009KT P6SM SKC  
METAR KGCK 172354Z 08011KT 10SM FEW039 24/16 A3015 RMK AO2 SLP183  
T02390156 10256 20222 56008  
METAR KGCK 172254Z 10007KT 10SM FEW038 FEW070 24/16 A3016 RMK AO2 SLP184  
T02440156  
METAR KGCK 172154Z 12005KT 10SM SCT040 BKN075 25/16 A3016 RMK AO2 SLP186  
T02500156  
 
METAR KLBL 172356Z AUTO 35005KT 10SM SCT040 BKN048 26/16 A3015 RMK AO2  
SLP183 T02610156 10261 20217 56015  
METAR KLBL 172256Z AUTO 29006KT 10SM SCT036 BKN055 26/17 A3016 RMK AO2  
SLP186 T02610167  
METAR KLBL 172156Z AUTO 27007KT 10SM SCT055 26/17 A3018 RMK AO2 SLP192  
T02560167  
 
METAR KEHA 180035Z AUTO 00000KT 10SM CLR 23/15 A3021 RMK AO2  
T02310153  
METAR KEHA 180015Z AUTO 06004KT 10SM CLR 25/16 A3020 RMK AO2  
T02460158  
METAR KEHA 172355Z AUTO 07005KT 10SM SCT030 25/16 A3021 RMK AO2  
T02490159 10251 20187 402860177  
 
GOODLAND (KGLD) 08/18/22 00:38 UTC  
RADAR VAD WINDS HEIGHT DIR/SPD(KT)  
15000 FT MSL...348/023  
14800 FT MSL...352/026  
14000 FT MSL...348/025  
13000 FT MSL...349/023  
12700 FT MSL...347/024  
12000 FT MSL...345/023  
11000 FT MSL...342/027  
10700 FT MSL...342/027  
10000 FT MSL...342/021  
9200 FT MSL...333/014  
9000 FT MSL...337/018  
8100 FT MSL...290/006  
8000 FT MSL...304/007  
7000 FT MSL...001/003  
6900 FT MSL...355/004  
6100 FT MSL...085/005  
6000 FT MSL...060/005  
5300 FT MSL...093/009  
5000 FT MSL...098/009  
4700 FT MSL...100/010  
4200 FT MSL...104/014  
4000 FT MSL...103/013  
4000 FT MSL...092/014  
 
DODGE CITY (KDDC) 08/18/22 00:42 UTC  
RADAR VAD WINDS HEIGHT DIR/SPD(KT)  
15000 FT MSL...354/017  
14000 FT MSL...350/016  
13800 FT MSL...353/015  
13000 FT MSL...003/017  
12000 FT MSL...007/013  
11500 FT MSL...006/006  
11000 FT MSL...002/008  
10000 FT MSL...008/014  
9600 FT MSL...004/007  
9000 FT MSL...311/023  
8100 FT MSL...355/014  
8000 FT MSL...345/015  
7000 FT MSL...359/014  
6900 FT MSL...359/014  
6000 FT MSL...009/014  
5900 FT MSL...014/009  
5100 FT MSL...032/009  
5000 FT MSL...041/008  
4300 FT MSL...036/011  
4000 FT MSL...033/012  
3700 FT MSL...044/010  
3200 FT MSL...030/013  
3000 FT MSL...035/011  
3000 FT MSL...035/011  
 
GOODLAND AVIATION DISCUSSION  
ISSUED AT 2306 UTC WEDNESDAY, AUGUST 17, 2022  
   
AVIATION
 
(FOR THE 00Z TAFS THROUGH 00Z FRIDAY EVENING)  
ISSUED AT 506 PM MDT WED AUG 17 2022  
MAINLY VFR CONDITIONS ARE EXPECTED FOR BOTH TERMINALS DURING THE  
FORECAST PERIOD. BETWEEN APPROX 08Z-14Z THURSDAY, THERE COULD BE  
5-6SM IN PATCHY FOG, ESPECIALLY FOR KGLD. CEILINGS COULD LOWER AT  
KGLD DOWN BELOW BKN010 AS WELL DURING THIS TIME.  
WINDS FOR KGLD, SOUTHEAST 5-10KTS THROUGH 06Z THURSDAY, THEN  
LIGHT/VARIABLE. BY 14Z, SOUTHWEST AROUND 10KTS THEN NORTHWEST BY  
20Z.  
WINDS FOR KMCK, SOUTHEAST 5-10KTS THROUGH 06Z THURSDAY, THEN  
LIGHT/VARIABLE. BY 17Z, SOUTH AROUND 10KTS.  
 
DODGE CITY AVIATION DISCUSSION  
ISSUED AT 2200 UTC WEDNESDAY, AUGUST 17, 2022  
   
AVIATION
 
(FOR THE 00Z TAFS THROUGH 00Z THURSDAY EVENING)  
ISSUED AT 500 PM CDT WED AUG 17 2022  
WIDESPREAD STRATOCUMULUS FIELD OVER SW KS AT 22Z IS EXPECTED TO  
DISSIPATE OVER THE NEXT FEW HOURS. VFR IS EXPECTED THROUGH THIS  
TAF CYCLE, WITH SCATTERED MID/HIGH CLOUDS. WINDS WILL TREND LIGHT  
AND VARIABLE THROUGH 12Z THU AS WEAK SURFACE HIGH PRESSURE SETTLES  
OVER THE AIRPORTS. AFTER 15Z THU, LIGHT SW WINDS ARE EXPECTED.  
 
* * * * * TEXAS/OKLAHOMA * * * * *  
 
KGUY 172335Z 1800/1824 03004KT P6SM VCSH SCT025 BKN100  
FM180600 VRB06KT P6SM BKN100  
FM181300 18006KT P6SM FEW250=  
METAR KGUY 172353Z AUTO 32003KT 10SM CLR 24/17 A3015 RMK AO2 SLP170  
T02440167 10250 20206 56014  
METAR KGUY 172253Z AUTO VRB04KT 10SM OVC034 24/17 A3017 RMK AO2 SLP177  
T02390167  
SPECI KGUY 172213Z AUTO 02006KT 10SM BKN030 OVC035 24/17 A3017 RMK AO2  
T02440167  
 
KDHT 172335Z 1800/1824 03005KT P6SM VCSH BKN080  
FM180600 VRB06KT P6SM VCSH OVC040  
FM181500 20008KT P6SM FEW110  
METAR KDHT 172353Z AUTO 08008KT 10SM OVC110 22/18 A3020 RMK AO2 SLP180  
60000 T02220178 10244 20217 56009  
METAR KDHT 172253Z AUTO 04009KT 10SM BKN120 23/17 A3021 RMK AO2 RAB08E21  
SLP181 P0000 T02280172  
METAR KDHT 172153Z AUTO 02009KT 10SM FEW120 24/17 A3022 RMK AO2 SLP184  
T02390167  
 
AMARILLO (KAMA) 08/18/22 00:41 UTC  
RADAR VAD WINDS HEIGHT DIR/SPD(KT)  
26000 FT MSL...239/014  
25000 FT MSL...307/015  
24300 FT MSL...307/012  
24000 FT MSL...311/014  
22000 FT MSL...319/016  
20900 FT MSL...325/017  
20000 FT MSL...322/019  
19000 FT MSL...321/021  
18000 FT MSL...322/022  
17500 FT MSL...314/022  
17000 FT MSL...323/027  
16000 FT MSL...310/023  
15000 FT MSL...307/023  
14800 FT MSL...291/019  
14000 FT MSL...309/019  
13000 FT MSL...300/022  
12000 FT MSL...305/022  
11000 FT MSL...298/020  
10000 FT MSL...299/020  
9200 FT MSL...298/011  
9000 FT MSL...295/015  
8000 FT MSL...333/018  
8000 FT MSL...309/010  
7000 FT MSL...347/015  
6900 FT MSL...347/015  
6100 FT MSL...015/010  
6000 FT MSL...023/010  
5300 FT MSL...040/014  
5000 FT MSL...042/014  
4600 FT MSL...037/016  
4200 FT MSL...039/018  
4000 FT MSL...034/017  
4000 FT MSL...040/017  
 
AMARILLO AVIATION DISCUSSION  
ISSUED AT 2344 UTC WEDNESDAY, AUGUST 17, 2022  
   
AVIATION
 
 
(00Z TAFS)  
ISSUED AT 636 PM CDT WED AUG 17 2022  
MOSTLY VFR CONDITIONS WILL PREVAIL AT ALL TAF SITES. SHOWERS  
POSSIBLE IN THE VICINITY OF THE TERMINALS FOR THE NEXT 3 TO 6  
HOURS, WITH A BETTER CHANCE OF RAIN, POSSIBLE TS AT KAMA  
THEREAFTER. ALL THUNDER WILL BE DEALT WITH ON AN AMENDMENT BASIS,  
AS CONFIDENCE IS LOW. HOWEVER WE COULD SEE CIGS DROP BELOW 3KFT  
AGL AT KAMA AS IT HAS THE BEST CHANCE FOR SCATTERED TO WIDESPREAD  
SHOWERS LATER TONIGHT AFTER 6Z. THIS COULD PERSIST THROUGH AT  
LEAST 12-15Z, WITH CONDITIONS GRADUALLY IMPROVING THEREAFTER. BY  
18-21Z ALL SITES SHOULD BE VFR WITH FEW HIGH CLOUDS TO MOSTLY  
CLEAR SKIES AND WINDS OUT OF THE SOUTH AROUND 5 TO 10 KTS. WINDS  
PRIOR TO 18Z WILL BE MAINLY 5-10 AND START OUT OF THE NORTHEAST  
AND GO VARIABLE OVERNIGHT, THEN BECOME MORE SOUTHERLY AROUND  
SUNRISE.  
WEBER  
 
* * * * * NEW MEXICO * * * * *  
 
KFMN 172331Z 1800/1824 04009KT P6SM VCTS SCT060CB BKN100  
TEMPO 1800/1802 VRB20G30KT  
FM180300 09009KT P6SM BKN100  
FM181900 14008KT P6SM SCT080 BKN120  
METAR KFMN 172353Z 02018G28KT 10SM OVC080 27/12 A3016 RMK AO2 PK WND  
36033/2330 LTG DSNT SE AND S TSB12E41 SLP148 60000 T02670122  
10322 20267 55005  
SPECI KFMN 172318Z 01023G32KT 10SM TS SCT080 BKN095 28/11 A3013 RMK AO2  
PK WND 36032/2317 LTG DSNT N AND NE AND S TSB12 T02830111  
SPECI KFMN 172301Z VRB03KT 10SM VCTS CLR 31/11 A3014 RMK AO2 LTG DSNT NE  
T03110111  
 
SPECI KSKX 180040Z AUTO 08010KT 10SM -RA FEW050 OVC085 16/14 A3037 RMK  
AO2 LTG DSNT N AND NW TSE05B16E34 P0000  
SPECI KSKX 180022Z AUTO 07010KT 10SM VCTS -RA BKN050 OVC080 16/14 A3038  
RMK AO2 LTG DSNT N AND NW TSE05B16 P0000  
SPECI KSKX 180011Z AUTO 06007KT 10SM BKN050 OVC080 16/15 A3038 RMK AO2  
LTG DSNT N AND NW TSE05RAE2359 P0000  
 
KLVS 172331Z 1800/1824 03009KT P6SM VCSH SCT050 BKN100  
TEMPO 1805/1809 5SM -TSRA OVC040CB  
FM181100 03005KT P6SM BKN015 OVC050  
FM181600 VRB06KT P6SM VCSH BKN040 OVC120  
FM182100 15009KT P6SM SCT050 BKN120  
SPECI KLVS 180033Z AUTO 10008KT 10SM VCTS SCT055 OVC100 19/12 A3035 RMK  
AO2 LTG DSNT E-SW T01940122  
METAR KLVS 172353Z AUTO 02005KT 10SM OVC100 19/13 A3035 RMK AO2 LTG  
DSNT E AND W SLP179 60000 T01940133 10250 20183 55002  
SPECI KLVS 172343Z AUTO 01006KT 10SM OVC110 19/13 A3034 RMK AO2 LTG DSNT  
E AND W T01890133  
 
METAR KRTN 172353Z AUTO 08004KT 10SM SCT095 17/16 A3033 RMK AO2 RAE30  
SLP199 P0000 60005 T01670156 10217 20161 58004  
SPECI KRTN 172325Z AUTO 04009KT 10SM -RA FEW006 FEW055 BKN100 17/16  
A3033 RMK AO2 P0000 T01670156  
METAR KRTN 172253Z AUTO 04008KT 10SM -RA OVC095 17/16 A3034 RMK AO2 LTG  
DSNT S SLP202 P0002 T01670156  
 
METAR KCAO 172355Z AUTO 04006KT 10SM FEW017 21/17 A3025 RMK AO2 SLP192  
60001 T02060167 10222 20178 56009  
METAR KCAO 172255Z AUTO 04005KT 10SM FEW060 21/17 A3026 RMK AO2 RAB10E19  
SLP192 P0000 T02110167  
METAR KCAO 172155Z AUTO 00000KT 10SM SCT080 OVC090 20/16 A3027 RMK AO2  
RAB32E44 SLP197 P0000 T02000161  
 
ALBUQUERQUE (KABX) 08/18/22 00:40 UTC  
RADAR VAD WINDS HEIGHT DIR/SPD(KT)  
30000 FT MSL...309/006  
28000 FT MSL...298/008  
26600 FT MSL...323/006  
26000 FT MSL...298/008  
25000 FT MSL...011/005  
24000 FT MSL...020/005  
23300 FT MSL...040/005  
20000 FT MSL...045/005  
19000 FT MSL...052/004  
18000 FT MSL...077/008  
17100 FT MSL...016/005  
16000 FT MSL...342/005  
15000 FT MSL...053/007  
14900 FT MSL...070/011  
14000 FT MSL...061/005  
13000 FT MSL...095/014  
13000 FT MSL...086/012  
10300 FT MSL...104/023  
10000 FT MSL...107/026  
9000 FT MSL...186/013  
8000 FT MSL...179/014  
7700 FT MSL...095/018  
7000 FT MSL...181/017  
7000 FT MSL...112/008  
6500 FT MSL...172/018  
6300 FT MSL...172/016  
 
ALBUQUERQUE AVIATION DISCUSSION  
ISSUED AT 2336 UTC WEDNESDAY, AUGUST 17, 2022  
   
AVIATION
 
 
00Z TAF CYCLE  
VFR CONDITIONS PREVAIL AND ARE FORECAST TO PERSIST WITH A COUPLE OF  
EXCEPTIONS. MVFR CONDITIONS ARE LIKELY IN/NEAR CONVECTION THIS  
EVENING AND OVERNIGHT, MAINLY ACROSS EASTERN NM WHERE SHORT-LIVED IFR  
CONDITIONS CAN NOT BE RULED OUT. MVFR CIGS ARE FORECAST TO DEVELOP  
EARLY THURSDAY MORNING AND IMPACT KLVS, KTCC AND POSSIBLY KROW. LOW  
CLOUDS WILL LINGER ACROSS EASTERN NM THURSDAY MORNING WITH AREAS OF  
SHOWERS PERSISTING. A GUSTY EAST CANYON WIND IS LIKELY AT KABQ LATE  
TONIGHT INTO THURSDAY MORNING, BUT SPEEDS ARE FORECAST TO REMAIN  
BELOW AIRPORT WEATHER WARNING THRESHOLD.  
11  
 
* * * * * WINDS AND TEMPERATURES ALOFT FORECASTS * * * * *  
 
DATA BASED ON 171200Z  
VALID 171800Z FOR USE 1700-2100Z. TEMPS NEG ABV 24000  
FT 3000 6000 9000 12000 18000 24000 30000 34000 39000  
SLC 9900 9900+17 0913+11 0806-08 2507-18 293131 273941 274652  
BCE 9900+07 0405-05 9900-16 260831 261340 262353  
LND 9900+18 9900+10 3209-09 3115-20 312236 304543 296252  
RKS 9900 0707+09 0209-08 2912-18 303134 305841 295552  
GJT 9900+14 0707+07 3506-06 2610-17 302730 293041 293853  
FMN 9900+14 2307+08 9900-05 2207-16 350730 361240 321753  
ABQ 1208+14 1407+07 1009-05 0807-15 050830 020741 011252  
MBW 1305 0415+08 0110-08 3018-20 303036 304843 296752  
DEN 9900+12 9900+06 3208-06 2912-17 293932 305541 295353  
PUB 9900+11 3507+05 3013-06 2816-17 303230 303741 303853  
ALS 9900+07 2710-05 2813-16 311530 322041 302453  
TCC 9900 9900+12 2114+07 9900-06 9900-15 990031 990041 321953  
BFF 9900 0505+13 0417+06 3211-08 3221-20 302737 304544 306252  
GLD 9900 3511+09 3610+06 3408-06 2920-17 294433 295242 305952  
GCK 0406+14 3513+11 3113+06 3011-06 2917-17 283831 294341 304653  
GAG 3508+15 3019+12 2727+06 2725-06 2819-16 282231 283242 313953  
AMA 0507 2909+13 2515+07 3014-06 3006-16 280531 300841 301953  
---------------------------------------------------------------------  
 
DATA BASED ON 171200Z  
VALID 180000Z FOR USE 2100-0600Z. TEMPS NEG ABV 24000  
FT 3000 6000 9000 12000 18000 24000 30000 34000 39000  
SLC 9900 0307+19 0609+11 0605-07 2908-18 292931 274042 293652  
BCE 9900+09 0412-05 9900-15 241130 241940 272452  
LND 9900+19 3605+10 3416-08 3515-19 322236 314143 306153  
RKS 0207 0206+11 0110-08 3217-18 313333 305342 295153  
GJT 1007+17 0513+10 3609-05 2914-17 292831 283141 294453  
FMN 9900+17 9900+09 2707-05 2710-15 300630 291240 312653  
ABQ 1310+17 1310+09 9900-05 9900-15 990030 031040 361752  
MBW 9900 9900+09 3317-08 3322-19 323036 314344 307053  
DEN 9900+15 9900+08 3616-06 3222-18 294533 306342 306253  
PUB 1605+13 3614+06 3415-06 3123-17 294131 304641 305353  
ALS 9900+07 3606-05 3015-15 292530 292941 303753  
TCC 0714 0911+13 2311+07 2805-05 3007-16 311530 341841 331853  
BFF 1306 1305+14 3508+07 3418-07 3225-21 323937 314546 306454  
GLD 1205 9900+10 3511+07 3516-06 3229-18 294535 305842 306953  
GCK 9900+17 0106+09 3415+07 3415-05 3125-17 294932 305741 305353  
GAG 0307+14 3313+12 3118+07 3119-06 3027-16 283731 303742 303953  
AMA 0510 2911+13 2922+07 3114-06 3015-16 292030 312241 322253  
---------------------------------------------------------------------  
 
DATA BASED ON 171200Z  
VALID 181200Z FOR USE 0600-1700Z. TEMPS NEG ABV 24000  
FT 3000 6000 9000 12000 18000 24000 30000 34000 39000  
SLC 9900 1708+19 1807+11 1106-08 9900-17 282232 273742 273952  
BCE 1107+08 1206-05 1205-16 271631 262640 263252  
LND 0307+13 3205+09 3313-08 3310-19 312734 314842 315652  
RKS 0816 9900+10 0108-08 0105-18 313533 314442 304952  
GJT 9900+16 0808+09 0607-06 3511-17 312731 304141 304152  
FMN 1408+14 1205+07 9900-05 3314-15 321830 312941 323552  
ABQ 9900+12 1709+06 0607-04 3608-15 341230 321940 333253  
MBW 0211 3209+08 3624-07 3421-19 333136 325444 326952  
DEN 0606+16 0314+09 3514-07 3522-19 323634 325842 326452  
PUB 0106+13 0610+08 3611-07 3419-18 324632 325342 325852  
ALS 9900+07 0206-05 3514-17 313131 314041 324453  
TCC 1207 9900+12 0207+06 3111-06 3214-15 292230 302541 323454  
BFF 2817 3013+15 3314+07 3423-08 3333-20 334537 335846 326152  
GLD 2609 0209+11 0219+06 3122-08 3336-19 324336 324945 325452  
GCK 9900+15 0211+09 0112+06 3220-07 3228-19 313535 315243 325853  
GAG 0307+14 0209+08 3415+08 3216-06 3023-18 305232 306443 316454  
AMA 0508 3014+11 2916+06 2820-06 3022-17 304531 304842 315154  
---------------------------------------------------------------------  
 
THIS PRODUCT IS UPDATED AUTOMATICALLY AT APPROXIMATELY 10, 30 AND 50  
MINUTES AFTER EACH HOUR, 24 HOURS PER DAY, 7 DAYS PER WEEK. IT MAY  
BECOME UNAVAILABLE AT TIMES DUE TO SYSTEM OUTAGES WITHOUT PRIOR NOTICE.  
USERS ARE ADVISED TO CHECK THE TIME AT THE TOP OF THE PRODUCT TO ENSURE  
THAT IT IS CURRENT. FURTHERMORE, CONTENT AND FORMAT OF THE PRODUCT ARE  
SUBJECT TO CHANGE WITHOUT PRIOR NOTICE.  
 
COMMENTS AND SUGGESTIONS ARE WELCOME AND SHOULD BE DIRECTED TO ONE OF  
THE ADDRESSES OR PHONE NUMBERS SHOWN AT THE BOTTOM OF THIS PAGE. IN  
ORDER TO EXPEDITE A RESPONSE TO COMMENTS OR SUGGESTIONS, BE SURE TO  
MENTION YOUR INTEREST IN THE HOT-AIR BALLOON FORECAST.  
 
CLICK HERE TO GO TO PREVIOUS BULLETINS.

The Nexlab CO Page Main Text Page